Aviation Digital Data Service (ADDS)

Output produced by METARs form (0203 UTC 22 April 2019)
found at http://www.aviationweather.gov/metar/data/
 
Forecast for: LQMO (MOSTAR AIRPORT , BA)
Text: TAF LQMO 212300Z 2200/2224 23005KT CAVOK TX22/2212Z TN09/2205Z
Forecast period: 0000 UTC 22 April 2019 to 0000 UTC 23 April 2019
Forecast type: FROM: standard forecast or significant change
Winds: from the SW (230 degrees) at 6 MPH (5 knots; 2.6 m/s)
Visibility: 6 or more miles 10+ km)
Ceiling: unknown
Clouds: missing
Weather: no significant weather forecast for this period
Text: TEMPO 2210/2216 17010KT
Forecast period: 1000 to 1600 UTC 22 April 2019
Forecast type: TEMPORARY: The following changes expected for less than half the time period
Winds: from the S (170 degrees) at 12 MPH (10 knots; 5.1 m/s)
Visibility: missing
Ceiling: unknown
Clouds: missing
Weather: no significant weather forecast for this period
Text: TEMPO 2222/2224 16012KT RA
Forecast period: 2200 UTC 22 April 2019 to 0000 UTC 23 April 2019
Forecast type: TEMPORARY: The following changes expected for less than half the time period
Winds: from the SSE (160 degrees) at 14 MPH (12 knots; 6.2 m/s)
Visibility: missing
Ceiling: unknown
Clouds: missing
Weather: RA  (moderate rain)